Time;durP1;ratioP1;P1;durP2;ratioP2;P2;SDS_P1;SDS_P2;PMS_P1;PMS_P2;Temp;Humidity;BMP_temperature;BMP_pressure;BME280_temperature;BME280_humidity;BME280_pressure;Samples;Min_cycle;Max_cycle;Signal;HPM_P1;HPM_P2
2023/03/27 00:01:00;;;;;;;6.63;1.55;;;;;;;5.35;65.43;101241.69;3609836;39;20066;-68
2023/03/27 00:03:28;;;;;;;6.82;1.70;;;;;;;5.29;65.19;101239.22;3607614;39;20063;-68
2023/03/27 00:06:23;;;;;;;10.25;1.80;;;;;;;5.42;65.72;101268.16;3609134;39;20411;-68
2023/03/27 00:08:50;;;;;;;7.82;1.92;;;;;;;5.45;65.59;101263.56;3601573;39;20406;-68
2023/03/27 00:11:18;;;;;;;5.65;1.80;;;;;;;5.44;65.64;101267.19;3604704;39;20401;-68
2023/03/27 00:13:43;;;;;;;8.15;1.88;;;;;;;5.31;65.77;101245.38;3609205;39;20127;-68
2023/03/27 00:16:10;;;;;;;8.38;2.08;;;;;;;5.50;65.90;101279.44;3607941;39;20055;-68
2023/03/27 00:18:36;;;;;;;8.32;2.22;;;;;;;5.52;65.70;101281.13;3610610;39;20054;-69
2023/03/27 00:21:03;;;;;;;3.65;1.45;;;;;;;5.53;66.00;101288.19;3610371;39;20055;-69
2023/03/27 00:23:31;;;;;;;8.35;1.65;;;;;;;5.41;65.93;101271.75;3611230;39;20051;-69
2023/03/27 00:25:57;;;;;;;7.35;1.77;;;;;;;5.55;66.30;101291.69;3609862;39;20054;-69
2023/03/27 00:28:27;;;;;;;13.23;2.15;;;;;;;5.57;66.60;101295.16;3608124;39;20065;-68
2023/03/27 00:30:54;;;;;;;6.95;1.70;;;;;;;5.55;66.20;101296.13;3609978;39;20047;-68
2023/03/27 00:33:22;;;;;;;6.15;1.63;;;;;;;5.52;66.66;101301.59;3611204;39;20067;-68
2023/03/27 00:35:49;;;;;;;8.60;1.70;;;;;;;5.53;66.15;101314.00;3609480;39;20144;-68
2023/03/27 00:38:17;;;;;;;4.60;1.58;;;;;;;5.49;66.87;101307.03;3610670;39;20047;-68
2023/03/27 00:40:46;;;;;;;8.20;1.92;;;;;;;5.46;67.01;101300.00;3606565;39;20179;-68
2023/03/27 00:43:32;;;;;;;12.77;2.65;;;;;;;5.40;67.19;101302.88;3608343;39;20039;-68
2023/03/27 00:46:26;;;;;;;5.45;1.70;;;;;;;5.34;67.99;101308.41;3606793;39;20103;-68
2023/03/27 00:48:55;;;;;;;5.82;1.88;;;;;;;5.33;68.02;101312.00;3607849;39;20125;-69
2023/03/27 00:51:25;;;;;;;6.35;1.80;;;;;;;5.30;67.88;101318.28;3607608;39;20648;-66
2023/03/27 00:53:54;;;;;;;7.97;1.88;;;;;;;5.24;67.86;101312.28;3610301;39;20134;-67
2023/03/27 00:56:20;;;;;;;8.55;1.50;;;;;;;5.22;68.21;101319.44;3606178;39;20213;-66
2023/03/27 00:58:54;;;;;;;6.38;1.95;;;;;;;4.97;68.11;101280.25;3598809;39;20094;-67
2023/03/27 01:01:26;;;;;;;7.05;1.85;;;;;;;5.19;68.46;101339.06;3606384;39;20063;-67
2023/03/27 01:03:52;;;;;;;5.75;1.40;;;;;;;4.97;68.64;101304.22;3607523;39;20058;-66
2023/03/27 01:06:20;;;;;;;8.95;1.98;;;;;;;5.17;68.65;101340.94;3610120;39;20311;-67
2023/03/27 01:08:47;;;;;;;5.43;1.48;;;;;;;5.16;68.49;101352.47;3606802;39;20128;-66
2023/03/27 01:11:45;;;;;;;5.75;1.40;;;;;;;5.12;68.77;101335.72;3611458;39;20301;-67
2023/03/27 01:14:46;;;;;;;8.90;1.60;;;;;;;5.10;68.90;101350.00;3603410;39;20127;-67
2023/03/27 01:18:11;;;;;;;5.10;1.50;;;;;;;5.03;69.59;101345.78;3608708;39;20408;-66
2023/03/27 01:21:30;;;;;;;8.65;1.77;;;;;;;4.97;69.74;101343.31;3586943;39;20314;-66
2023/03/27 01:24:23;;;;;;;3.38;1.35;;;;;;;4.93;70.17;101352.31;3612644;39;20047;-66
2023/03/27 01:27:17;;;;;;;4.32;1.20;;;;;;;4.87;70.42;101351.56;3608195;39;20067;-67
2023/03/27 01:30:07;;;;;;;5.28;1.48;;;;;;;4.95;71.00;101363.78;3607039;39;20059;-67
2023/03/27 01:33:00;;;;;;;6.55;1.88;;;;;;;5.01;70.79;101371.59;3608819;39;20050;-67
2023/03/27 01:35:57;;;;;;;3.35;1.40;;;;;;;5.06;71.14;101367.03;3608094;39;20358;-66
2023/03/27 01:39:01;;;;;;;3.97;1.85;;;;;;;5.11;70.93;101370.44;3608077;39;20272;-66
2023/03/27 01:41:45;;;;;;;7.72;1.75;;;;;;;4.82;70.72;101318.91;3607709;39;20104;-67
2023/03/27 01:44:42;;;;;;;4.45;1.75;;;;;;;5.18;70.84;101381.78;3607974;39;20124;-67
2023/03/27 01:47:25;;;;;;;7.28;1.70;;;;;;;5.21;70.99;101390.53;3609488;39;20401;-66
2023/03/27 01:50:00;;;;;;;6.63;1.85;;;;;;;5.22;70.68;101386.06;3610416;39;20095;-67
2023/03/27 01:52:37;;;;;;;3.90;2.00;;;;;;;5.22;70.53;101394.94;3606153;39;20063;-67
2023/03/27 01:55:17;;;;;;;5.15;1.80;;;;;;;5.23;70.23;101394.03;3609230;39;20482;-67
2023/03/27 01:57:59;;;;;;;6.38;1.73;;;;;;;5.27;71.09;101387.69;3607577;39;20066;-67
2023/03/27 02:00:28;;;;;;;10.32;2.15;;;;;;;5.29;70.53;101395.63;3608576;39;20047;-67
2023/03/27 02:03:14;;;;;;;6.55;2.10;;;;;;;5.30;70.92;101395.59;3608987;39;20407;-67
2023/03/27 02:06:09;;;;;;;7.43;2.35;;;;;;;5.26;70.57;101396.59;3605679;39;20063;-67
2023/03/27 02:09:04;;;;;;;6.97;2.00;;;;;;;5.21;71.36;101395.00;3608792;39;20062;-67
2023/03/27 02:12:01;;;;;;;6.03;1.83;;;;;;;5.22;71.17;101404.72;3608728;39;20055;-67
2023/03/27 02:14:37;;;;;;;5.55;2.05;;;;;;;4.91;71.20;101362.16;3599040;39;20343;-67
2023/03/27 02:17:12;;;;;;;10.93;2.33;;;;;;;5.15;71.28;101414.72;3609357;39;20278;-66
2023/03/27 02:19:49;;;;;;;8.43;2.08;;;;;;;5.10;71.61;101411.28;3606108;39;20047;-67
2023/03/27 02:22:15;;;;;;;4.82;1.80;;;;;;;5.03;71.85;101409.75;3609899;39;20050;-68
2023/03/27 02:24:42;;;;;;;6.25;2.08;;;;;;;5.06;71.79;101421.19;3608924;39;20059;-67
2023/03/27 02:27:39;;;;;;;5.25;1.50;;;;;;;5.03;72.18;101425.72;3609232;39;20077;-67
2023/03/27 02:30:33;;;;;;;7.07;2.25;;;;;;;4.91;71.76;101412.75;3606215;39;20122;-68
2023/03/27 02:33:07;;;;;;;6.07;2.10;;;;;;;5.01;71.76;101433.78;3607460;39;20493;-67
2023/03/27 02:35:59;;;;;;;8.18;1.92;;;;;;;4.70;72.15;101375.19;3608387;39;20049;-67
2023/03/27 02:38:43;;;;;;;11.63;1.90;;;;;;;4.99;72.23;101432.94;3608563;39;20086;-67
2023/03/27 02:41:27;;;;;;;9.75;1.98;;;;;;;4.94;72.38;101436.66;3599810;39;20051;-67
2023/03/27 02:44:19;;;;;;;7.32;1.90;;;;;;;4.86;72.20;101434.22;3607962;39;20047;-67
2023/03/27 02:47:13;;;;;;;5.25;2.03;;;;;;;4.43;71.92;101383.00;3608010;39;20139;-66
2023/03/27 02:49:50;;;;;;;;;;;;;;;4.68;72.45;101432.94;3606647;39;20050;-67
2023/03/27 02:52:50;;;;;;;8.27;1.70;;;;;;;4.67;72.88;101446.31;3606971;39;19967;-67
2023/03/27 02:55:41;;;;;;;4.35;1.63;;;;;;;4.64;72.82;101455.25;3606916;39;20422;-67
2023/03/27 02:58:23;;;;;;;7.55;1.92;;;;;;;4.59;73.07;101438.50;3610229;39;20055;-67
2023/03/27 03:00:50;;;;;;;7.90;2.35;;;;;;;4.55;72.46;101450.16;3608864;39;20055;-67
2023/03/27 03:03:56;;;;;;;6.03;2.08;;;;;;;4.48;73.62;101451.25;3607481;39;20078;-67
2023/03/27 03:06:28;;;;;;;9.70;1.80;;;;;;;4.48;73.46;101456.56;3599856;39;20062;-67
2023/03/27 03:09:04;;;;;;;7.43;1.85;;;;;;;4.50;73.30;101462.72;3603459;39;20051;-67
2023/03/27 03:11:30;;;;;;;6.60;2.20;;;;;;;4.50;73.80;101468.03;3606749;39;21266;-67
2023/03/27 03:13:56;;;;;;;6.47;2.00;;;;;;;4.50;73.48;101471.56;3607509;39;20300;-66
2023/03/27 03:16:22;;;;;;;8.73;2.10;;;;;;;4.52;73.45;101466.22;3607218;39;20049;-67
2023/03/27 03:18:48;;;;;;;9.40;1.63;;;;;;;4.49;73.49;101469.81;3605355;39;20062;-67
2023/03/27 03:21:14;;;;;;;6.47;1.73;;;;;;;4.45;73.13;101451.31;3607044;39;20067;-67
2023/03/27 03:23:40;;;;;;;7.60;2.10;;;;;;;4.51;72.99;101467.13;3603414;39;20337;-67
2023/03/27 03:26:06;;;;;;;7.60;1.90;;;;;;;4.53;72.01;101483.94;3607375;39;20054;-67
2023/03/27 03:28:35;;;;;;;7.28;2.13;;;;;;;4.50;72.74;101474.22;3606501;39;20383;-66
2023/03/27 03:31:01;;;;;;;6.38;1.50;;;;;;;4.46;72.16;101488.53;3609349;39;20412;-66
2023/03/27 03:33:28;;;;;;;7.43;2.08;;;;;;;4.38;72.67;101496.75;3607396;39;20046;-66
2023/03/27 03:36:00;;;;;;;5.55;1.90;;;;;;;4.27;72.53;101481.94;3606526;39;20420;-66
2023/03/27 03:38:28;;;;;;;7.85;1.85;;;;;;;4.33;72.73;101514.59;3603898;39;20055;-67
2023/03/27 03:40:57;;;;;;;6.07;1.90;;;;;;;4.29;72.97;101510.28;3605356;39;20050;-66
2023/03/27 03:43:26;;;;;;;6.45;1.98;;;;;;;4.27;73.31;101514.75;3607444;39;20081;-66
2023/03/27 03:45:53;;;;;;;6.80;1.85;;;;;;;4.26;72.51;101522.78;3610410;39;20061;-67
2023/03/27 03:48:20;;;;;;;8.15;1.92;;;;;;;4.23;72.38;101523.72;3606282;39;20055;-67
2023/03/27 03:50:48;;;;;;;7.68;1.83;;;;;;;4.23;72.75;101528.19;3605067;39;20128;-67
2023/03/27 03:53:18;;;;;;;5.40;1.95;;;;;;;4.24;73.05;101520.13;3598175;39;20059;-67
2023/03/27 03:55:48;;;;;;;9.48;1.80;;;;;;;4.25;73.28;101529.00;3602122;39;20093;-67
2023/03/27 03:58:14;;;;;;;3.10;1.75;;;;;;;4.28;72.65;101528.91;3608319;39;20620;-67
2023/03/27 04:00:39;;;;;;;8.88;2.10;;;;;;;4.31;72.90;101542.16;3608214;39;20063;-67
2023/03/27 04:03:07;;;;;;;7.40;1.80;;;;;;;4.28;72.66;101532.47;3610279;39;20054;-68
2023/03/27 04:05:37;;;;;;;7.93;2.08;;;;;;;4.37;72.66;101550.84;3606696;39;20039;-67
2023/03/27 04:08:07;;;;;;;3.28;1.83;;;;;;;4.36;72.89;101546.47;3608651;39;20055;-68
2023/03/27 04:10:38;;;;;;;4.75;1.90;;;;;;;4.34;72.73;101536.75;3605828;39;20107;-67
2023/03/27 04:13:05;;;;;;;5.95;1.77;;;;;;;4.46;72.08;101554.22;3608956;39;20042;-67
2023/03/27 04:15:32;;;;;;;4.15;1.65;;;;;;;4.45;71.85;101557.81;3607855;39;20058;-69
2023/03/27 04:17:58;;;;;;;6.75;1.65;;;;;;;4.45;71.96;101557.81;3604383;39;20063;-69
2023/03/27 04:20:27;;;;;;;4.18;1.50;;;;;;;4.40;72.47;101557.91;3609200;39;20055;-69
2023/03/27 04:22:53;;;;;;;3.45;1.45;;;;;;;4.37;72.11;101564.16;3605222;39;20046;-69
2023/03/27 04:25:23;;;;;;;4.68;1.80;;;;;;;4.34;72.55;101574.00;3604528;39;20116;-69
2023/03/27 04:27:50;;;;;;;6.90;2.08;;;;;;;4.08;72.99;101540.91;3606422;39;20055;-69
2023/03/27 04:30:21;;;;;;;6.45;1.85;;;;;;;4.28;72.56;101585.72;3609564;39;20051;-71
2023/03/27 04:32:53;;;;;;;5.45;1.77;;;;;;;4.26;72.71;101582.19;3609444;39;20047;-69
2023/03/27 04:35:20;;;;;;;5.20;1.65;;;;;;;4.25;72.82;101584.88;3605568;39;20051;-68
2023/03/27 04:37:47;;;;;;;6.20;2.10;;;;;;;4.22;73.21;101591.19;3605925;39;20046;-69
2023/03/27 04:40:18;;;;;;;7.30;1.90;;;;;;;4.20;73.10;101598.31;3607755;39;20067;-68
2023/03/27 04:42:44;;;;;;;5.90;1.40;;;;;;;4.19;72.96;101601.88;3608164;39;20105;-69
2023/03/27 04:45:15;;;;;;;4.15;1.45;;;;;;;4.14;73.40;101607.28;3599290;39;20054;-69
2023/03/27 04:47:42;;;;;;;6.18;2.20;;;;;;;4.11;73.45;101610.03;3605361;39;20138;-69
2023/03/27 04:50:10;;;;;;;6.18;2.03;;;;;;;4.04;73.58;101607.53;3610163;39;20124;-69
2023/03/27 04:52:36;;;;;;;5.55;1.55;;;;;;;4.05;73.78;101617.28;3606185;39;20061;-69
2023/03/27 04:55:04;;;;;;;3.78;1.90;;;;;;;4.02;73.97;101617.34;3610172;39;20068;-69
2023/03/27 04:57:31;;;;;;;7.80;1.88;;;;;;;4.00;74.07;101617.38;3608547;39;20054;-69
2023/03/27 04:59:59;;;;;;;7.57;1.58;;;;;;;4.00;74.11;101627.16;3615368;39;20151;-69
2023/03/27 05:02:25;;;;;;;6.55;1.70;;;;;;;4.01;73.60;101620.91;3602104;39;20333;-69
2023/03/27 05:04:57;;;;;;;4.35;1.42;;;;;;;4.03;74.17;101627.06;3610713;39;20055;-69
2023/03/27 05:07:25;;;;;;;7.72;1.85;;;;;;;4.02;74.89;101617.34;3608581;39;20080;-69
2023/03/27 05:09:52;;;;;;;7.60;1.88;;;;;;;3.87;74.91;101594.59;3611665;39;20100;-68
2023/03/27 05:12:18;;;;;;;6.25;1.48;;;;;;;4.11;74.89;101635.75;3611562;39;20422;-69
2023/03/27 05:14:44;;;;;;;4.10;1.60;;;;;;;4.10;74.94;101624.25;3607172;39;20316;-69
2023/03/27 05:17:10;;;;;;;6.15;1.80;;;;;;;3.43;74.36;101520.22;3608603;39;20066;-69
2023/03/27 05:19:36;;;;;;;6.35;1.77;;;;;;;4.22;74.40;101655.03;3612047;39;20068;-69
2023/03/27 05:22:02;;;;;;;7.03;2.00;;;;;;;4.25;74.31;101654.97;3615155;39;20054;-69
2023/03/27 05:24:27;;;;;;;9.40;2.03;;;;;;;4.30;74.03;101658.38;3613711;39;20073;-69
2023/03/27 05:26:53;;;;;;;4.50;1.50;;;;;;;4.34;74.45;101659.19;3610435;39;20063;-69
2023/03/27 05:29:18;;;;;;;4.88;1.85;;;;;;;4.26;74.34;101648.72;3612338;39;20061;-68
2023/03/27 05:31:44;;;;;;;7.88;2.30;;;;;;;4.38;74.36;101669.75;3604639;39;20042;-69
2023/03/27 05:34:10;;;;;;;5.82;1.83;;;;;;;4.39;74.47;101668.81;3606490;39;20400;-69
2023/03/27 05:36:36;;;;;;;3.08;1.48;;;;;;;4.42;74.69;101670.56;3607625;39;20058;-70
2023/03/27 05:39:03;;;;;;;8.63;1.77;;;;;;;4.46;74.52;101674.00;3607031;39;20301;-69
2023/03/27 05:41:29;;;;;;;5.05;1.88;;;;;;;4.50;74.87;101675.69;3610965;39;20046;-70
2023/03/27 05:43:54;;;;;;;6.18;1.80;;;;;;;4.53;74.38;101678.28;3609757;39;20061;-68
2023/03/27 05:46:20;;;;;;;5.55;2.00;;;;;;;4.34;74.22;101643.22;3611823;39;20054;-70
2023/03/27 05:48:46;;;;;;;12.10;2.25;;;;;;;4.58;74.28;101681.72;3610306;39;20055;-70
2023/03/27 05:51:11;;;;;;;6.78;2.05;;;;;;;4.59;74.30;101691.44;3610364;39;20360;-70
2023/03/27 05:53:40;;;;;;;6.25;1.77;;;;;;;4.60;74.56;101693.22;3609236;39;20057;-68
2023/03/27 05:56:07;;;;;;;6.00;1.83;;;;;;;4.43;74.03;101672.28;3606218;39;21168;-68
2023/03/27 05:58:33;;;;;;;7.88;2.22;;;;;;;4.28;73.96;101643.34;3606930;39;20062;-68
2023/03/27 06:00:59;;;;;;;8.25;2.22;;;;;;;4.59;74.63;101702.09;3606451;39;20051;-69
2023/03/27 06:03:28;;;;;;;6.43;2.13;;;;;;;4.55;74.63;101695.09;3606476;39;20066;-68
2023/03/27 06:05:58;;;;;;;5.32;2.08;;;;;;;4.60;74.64;101706.53;3609875;39;20200;-68
2023/03/27 06:08:25;;;;;;;10.77;2.10;;;;;;;4.57;74.30;101709.28;3604769;39;20123;-69
2023/03/27 06:10:51;;;;;;;6.25;2.20;;;;;;;4.52;74.69;101705.81;3607970;39;20047;-68
2023/03/27 06:13:17;;;;;;;7.82;2.08;;;;;;;4.57;74.81;101703.94;3610402;39;20107;-68
2023/03/27 06:15:43;;;;;;;5.50;1.80;;;;;;;4.68;74.67;101731.19;3611536;39;20055;-69
2023/03/27 06:18:10;;;;;;;6.13;2.20;;;;;;;4.74;74.44;101739.03;3612355;39;20509;-69
2023/03/27 06:20:37;;;;;;;4.97;2.42;;;;;;;4.76;74.47;101752.34;3610395;39;20103;-67
2023/03/27 06:23:08;;;;;;;7.50;3.00;;;;;;;4.70;73.65;101752.47;3596150;39;20130;-67
2023/03/27 06:25:36;;;;;;;6.28;3.13;;;;;;;4.55;73.94;101757.22;3610201;39;20073;-67
2023/03/27 06:28:06;;;;;;;6.43;3.10;;;;;;;4.47;75.79;101747.63;3611293;39;20054;-66
2023/03/27 06:30:33;;;;;;;6.47;3.25;;;;;;;4.37;76.15;101741.63;3605380;39;20060;-66
2023/03/27 06:32:59;;;;;;;7.95;3.35;;;;;;;4.32;76.36;101747.06;3606574;39;20398;-64
2023/03/27 06:35:28;;;;;;;6.65;3.35;;;;;;;4.29;76.91;101739.16;3609208;39;20051;-66
2023/03/27 06:37:54;;;;;;;6.97;3.05;;;;;;;4.27;77.79;101743.63;3597380;39;20051;-65
2023/03/27 06:40:23;;;;;;;4.95;2.83;;;;;;;4.28;78.26;101744.50;3607535;39;20067;-64
2023/03/27 06:42:54;;;;;;;15.10;8.55;;;;;;;4.23;77.76;101757.91;3608147;39;20050;-64
2023/03/27 06:45:27;;;;;;;62.83;39.45;;;;;;;4.22;78.49;101761.47;3609158;39;20051;-63
2023/03/27 06:47:56;;;;;;;6.65;4.00;;;;;;;4.29;78.76;101763.09;3605445;39;20043;-63
2023/03/27 06:50:24;;;;;;;6.53;3.00;;;;;;;4.37;78.74;101761.13;3604446;39;20555;-63
2023/03/27 06:52:50;;;;;;;6.15;3.25;;;;;;;4.50;78.46;101766.22;3604237;39;20127;-64
2023/03/27 06:55:19;;;;;;;5.65;2.85;;;;;;;4.62;78.63;101776.59;3607502;39;20059;-64
2023/03/27 06:57:48;;;;;;;5.13;2.55;;;;;;;4.72;78.10;101772.81;3604872;39;20054;-64
2023/03/27 07:00:17;;;;;;;7.57;2.53;;;;;;;4.79;77.25;101776.22;3606807;39;20119;-64
2023/03/27 07:02:45;;;;;;;5.13;2.75;;;;;;;4.88;77.59;101789.31;3611655;39;20051;-64
2023/03/27 07:05:12;;;;;;;3.88;2.50;;;;;;;4.92;77.79;101795.50;3609090;39;20047;-64
2023/03/27 07:07:37;;;;;;;7.25;2.80;;;;;;;4.92;77.36;101784.81;3611644;39;20047;-66
2023/03/27 07:10:04;;;;;;;7.47;2.58;;;;;;;5.06;77.07;101790.69;3606652;39;20071;-65
2023/03/27 07:12:29;;;;;;;5.40;2.15;;;;;;;5.03;76.86;101770.31;3607669;39;20071;-65
2023/03/27 07:14:55;;;;;;;4.80;2.13;;;;;;;5.28;76.53;101799.94;3606643;39;20061;-64
2023/03/27 07:17:21;;;;;;;4.35;1.75;;;;;;;5.30;75.74;101798.13;3606228;39;20410;-65
2023/03/27 07:19:47;;;;;;;3.78;2.05;;;;;;;5.47;75.22;101815.47;3607100;39;20062;-65
2023/03/27 07:22:13;;;;;;;6.47;2.25;;;;;;;5.59;74.86;101807.19;3607423;39;20219;-65
2023/03/27 07:24:39;;;;;;;5.85;2.30;;;;;;;5.63;73.64;101798.19;3610613;39;20086;-66
2023/03/27 07:27:06;;;;;;;4.78;2.13;;;;;;;5.91;73.58;101810.81;3606249;39;20058;-65
2023/03/27 07:29:33;;;;;;;5.25;2.20;;;;;;;6.17;72.54;101811.00;3606963;39;20053;-67
2023/03/27 07:31:59;;;;;;;7.35;2.10;;;;;;;6.40;71.64;101817.47;3596267;39;20055;-66
2023/03/27 07:34:25;;;;;;;3.40;2.10;;;;;;;6.60;71.04;101811.59;3606227;39;20073;-66
2023/03/27 07:36:51;;;;;;;4.47;1.90;;;;;;;6.91;69.50;101827.53;3608895;39;20086;-66
2023/03/27 07:39:17;;;;;;;4.45;1.67;;;;;;;7.00;68.40;101792.50;3608611;39;20049;-67
2023/03/27 07:41:43;;;;;;;4.40;1.83;;;;;;;7.46;67.32;101833.84;3610520;39;20499;-67
2023/03/27 07:44:08;;;;;;;4.70;1.90;;;;;;;7.76;65.33;101823.03;3608696;39;20063;-68
2023/03/27 07:46:34;;;;;;;6.40;1.80;;;;;;;7.93;64.13;101827.78;3607346;39;20047;-67
2023/03/27 07:48:59;;;;;;;4.50;2.05;;;;;;;8.04;62.31;101826.50;3606032;39;20069;-67
2023/03/27 07:51:26;;;;;;;6.00;1.70;;;;;;;8.14;61.54;101822.56;3610325;39;20050;-67
2023/03/27 07:53:57;;;;;;;8.60;1.80;;;;;;;8.37;60.88;101826.19;3608896;39;20305;-68
2023/03/27 07:56:23;;;;;;;4.35;1.52;;;;;;;8.57;60.27;101826.41;3609039;39;20048;-69
2023/03/27 07:58:50;;;;;;;6.82;1.67;;;;;;;8.57;60.01;101794.22;3610462;39;20132;-68
2023/03/27 08:01:16;;;;;;;4.75;2.10;;;;;;;9.00;58.23;101842.63;3612859;39;20127;-69
2023/03/27 08:03:42;;;;;;;2.97;1.58;;;;;;;9.14;58.08;101839.44;3605769;39;20373;-69
2023/03/27 08:06:08;;;;;;;7.70;1.77;;;;;;;9.27;56.77;101846.06;3608669;39;20062;-70
2023/03/27 08:08:33;;;;;;;6.05;1.60;;;;;;;9.24;57.32;101808.63;3608071;39;20057;-70
2023/03/27 08:11:02;;;;;;;5.72;1.90;;;;;;;9.49;56.18;101830.81;3608345;39;20067;-70
2023/03/27 08:13:28;;;;;;;5.00;1.25;;;;;;;9.60;54.85;101846.47;3606536;39;20067;-70
2023/03/27 08:16:15;;;;;;;5.60;1.60;;;;;;;9.61;55.22;101831.22;3610005;39;20080;-71
2023/03/27 08:18:43;;;;;;;6.30;1.70;;;;;;;9.90;55.14;101846.16;3607130;39;20039;-72
2023/03/27 08:21:10;;;;;;;4.50;1.60;;;;;;;10.04;53.59;101858.97;3604168;39;20055;-72
2023/03/27 08:23:37;;;;;;;4.88;1.10;;;;;;;9.72;53.76;101826.31;3609686;39;20399;-72
2023/03/27 08:26:05;;;;;;;9.25;2.20;;;;;;;9.77;54.05;101856.53;3605232;39;20054;-72
2023/03/27 08:28:34;;;;;;;5.38;1.67;;;;;;;9.45;53.41;101872.16;3608549;39;20070;-74
2023/03/27 08:31:08;;;;;;;6.53;1.50;;;;;;;9.00;56.07;101870.31;3607065;39;20055;-73
2023/03/27 08:33:35;;;;;;;4.72;1.30;;;;;;;8.81;58.99;101863.91;3610049;39;20055;-74
2023/03/27 08:36:01;;;;;;;85.95;49.47;;;;;;;9.09;60.10;101885.19;3606737;39;20058;-74
2023/03/27 08:38:28;;;;;;;4.40;1.83;;;;;;;9.21;55.86;101883.84;3609817;39;20123;-73
2023/03/27 08:40:59;;;;;;;3.58;1.30;;;;;;;9.44;55.00;101881.13;3608663;39;20059;-73
2023/03/27 08:43:41;;;;;;;3.33;1.08;;;;;;;9.44;53.81;101840.84;3610925;39;20136;-71
2023/03/27 08:46:20;;;;;;;6.50;1.70;;;;;;;9.80;54.02;101882.34;3607193;39;20067;-71
2023/03/27 08:49:00;;;;;;;3.28;0.82;;;;;;;10.04;55.04;101889.38;3609866;39;20399;-71
2023/03/27 08:51:46;;;;;;;4.13;1.33;;;;;;;10.33;53.46;101874.72;3607376;39;20136;-72
2023/03/27 08:54:27;;;;;;;4.00;1.67;;;;;;;10.50;52.64;101874.00;3598179;39;20051;-71
2023/03/27 08:56:53;;;;;;;5.03;1.58;;;;;;;10.74;53.53;101882.75;3608836;39;20070;-71
2023/03/27 08:59:23;;;;;;;3.92;1.38;;;;;;;10.86;51.15;101897.47;3612674;39;20055;-71
2023/03/27 09:01:51;;;;;;;6.03;1.50;;;;;;;10.91;50.02;101901.69;3614342;39;20105;-70
2023/03/27 09:04:53;;;;;;;3.88;1.30;;;;;;;11.01;51.44;101887.81;3613401;39;20051;-70
2023/03/27 09:07:32;;;;;;;2.65;1.20;;;;;;;11.26;49.49;101909.03;3612622;39;20402;-71
2023/03/27 09:10:09;;;;;;;2.83;1.02;;;;;;;11.34;48.60;101905.03;3607668;39;20365;-70
2023/03/27 09:12:55;;;;;;;4.97;1.63;;;;;;;11.36;47.45;101908.56;3613439;39;20400;-70
2023/03/27 09:16:11;;;;;;;5.00;1.27;;;;;;;11.47;48.19;101909.84;3605340;39;20098;-70
2023/03/27 09:18:51;;;;;;;4.40;1.20;;;;;;;11.64;47.05;101907.22;3567732;40;20384;-69
2023/03/27 09:21:44;;;;;;;6.43;1.30;;;;;;;11.38;45.89;101909.34;3610114;39;20085;-70
2023/03/27 09:24:29;;;;;;;5.60;1.48;;;;;;;11.38;46.49;101912.06;3608236;39;20549;-69
2023/03/27 09:26:56;;;;;;;5.13;1.67;;;;;;;11.68;47.05;101929.50;3609170;39;20065;-69
2023/03/27 09:29:28;;;;;;;3.35;0.93;;;;;;;11.10;49.56;101925.94;3611147;39;20094;-68
2023/03/27 09:31:57;;;;;;;1.58;0.43;;;;;;;10.22;52.91;101962.97;3613429;39;20096;-68
2023/03/27 09:34:33;;;;;;;2.47;0.65;;;;;;;9.26;55.52;101947.13;3601651;39;20055;-69
2023/03/27 09:36:59;;;;;;;2.47;0.55;;;;;;;8.49;58.59;101983.88;3613600;39;20063;-68
2023/03/27 09:39:32;;;;;;;4.35;0.73;;;;;;;7.81;61.23;101979.00;3608177;39;20043;-67
2023/03/27 09:42:09;;;;;;;3.15;0.90;;;;;;;7.33;62.75;101968.91;3609544;39;20127;-68
2023/03/27 09:44:41;;;;;;;3.00;0.82;;;;;;;6.84;63.66;101940.91;3611370;39;20050;-67
2023/03/27 09:47:25;;;;;;;3.45;0.82;;;;;;;6.78;65.60;101954.44;3610681;39;20667;-67
2023/03/27 09:50:19;;;;;;;3.05;0.80;;;;;;;6.70;65.70;101963.56;3610676;39;20058;-67
2023/03/27 09:52:45;;;;;;;0.93;0.75;;;;;;;6.73;65.98;101962.59;3610802;39;20097;-68
2023/03/27 09:55:30;;;;;;;2.17;0.70;;;;;;;6.82;68.06;101959.66;3608060;39;20277;-68
2023/03/27 09:58:29;;;;;;;0.80;0.50;;;;;;;6.99;68.42;101967.19;3606821;39;20098;-67
2023/03/27 10:01:37;;;;;;;2.15;0.85;;;;;;;7.24;66.29;101969.16;3603039;39;20059;-68
2023/03/27 10:04:20;;;;;;;2.72;1.40;;;;;;;7.42;65.41;101955.22;3602711;39;20684;-67
2023/03/27 10:07:04;;;;;;;5.50;4.38;;;;;;;7.70;63.33;101973.09;3614336;39;20418;-68
2023/03/27 10:09:33;;;;;;;15.25;8.90;;;;;;;7.81;61.85;101976.34;3611884;39;20047;-68
2023/03/27 10:12:18;;;;;;;2.10;0.70;;;;;;;8.16;63.28;101982.34;3613823;39;20051;-68
2023/03/27 10:14:49;;;;;;;1.55;0.70;;;;;;;8.72;63.25;101990.25;3613646;39;20075;-67
2023/03/27 10:17:37;;;;;;;3.40;0.85;;;;;;;9.23;61.42;101978.56;3609915;39;20056;-68
2023/03/27 10:20:24;;;;;;;3.65;1.00;;;;;;;9.26;58.68;101912.25;3609019;39;20711;-69
2023/03/27 10:22:59;;;;;;;3.67;1.05;;;;;;;10.08;57.65;101981.47;3609306;39;20054;-69
2023/03/27 10:25:33;;;;;;;4.75;1.20;;;;;;;10.43;56.60;101975.53;3610847;39;20125;-69
2023/03/27 10:28:21;;;;;;;4.60;1.20;;;;;;;10.70;54.96;101983.34;3611335;39;20385;-68
2023/03/27 10:31:07;;;;;;;5.63;1.20;;;;;;;10.87;54.53;101953.88;3609796;39;20055;-68
2023/03/27 10:33:42;;;;;;;3.60;1.08;;;;;;;11.37;54.34;101974.03;3612405;39;20263;-68
2023/03/27 10:36:10;;;;;;;3.63;1.05;;;;;;;11.58;54.88;101958.69;3604919;39;20055;-68
2023/03/27 10:38:41;;;;;;;2.13;0.88;;;;;;;11.88;51.43;101979.72;3613384;39;20065;-69
2023/03/27 10:41:18;;;;;;;1.92;0.63;;;;;;;11.78;51.38;101973.88;3607778;39;20385;-68
2023/03/27 10:43:48;;;;;;;1.67;0.80;;;;;;;11.81;50.81;101969.22;3609939;39;20059;-69
2023/03/27 10:46:18;;;;;;;2.15;0.70;;;;;;;12.07;50.29;101970.66;3612333;39;20053;-69
2023/03/27 10:49:05;;;;;;;1.88;0.80;;;;;;;12.27;49.37;101976.84;3608859;39;20183;-69
2023/03/27 10:52:05;;;;;;;5.15;0.85;;;;;;;12.41;46.04;101982.44;3607266;39;20401;-69
2023/03/27 10:54:53;;;;;;;2.50;0.75;;;;;;;12.49;46.32;101977.50;3610641;39;20058;-69
2023/03/27 10:57:27;;;;;;;2.28;0.73;;;;;;;12.79;45.46;101979.59;3607788;39;20077;-69
2023/03/27 11:00:36;;;;;;;3.25;1.00;;;;;;;13.18;45.38;101986.50;3607149;39;20390;-68
2023/03/27 11:03:35;;;;;;;3.97;1.00;;;;;;;13.06;43.37;101998.81;3605885;39;20054;-69
2023/03/27 11:06:10;;;;;;;3.17;0.95;;;;;;;12.08;47.89;102030.81;3605471;39;20067;-69
2023/03/27 11:09:04;;;;;;;3.47;0.93;;;;;;;10.83;53.26;102046.41;3611838;39;20078;-68
2023/03/27 11:11:58;;;;;;;3.63;1.17;;;;;;;9.99;57.66;102049.91;3612063;39;20058;-68
2023/03/27 11:14:45;;;;;;;1.17;0.75;;;;;;;9.29;60.16;102050.75;3606170;39;20059;-67
2023/03/27 11:17:19;;;;;;;5.20;1.40;;;;;;;8.84;63.21;102027.34;3609270;39;20063;-67
2023/03/27 11:19:55;;;;;;;2.60;0.70;;;;;;;8.42;64.34;102044.00;3608936;39;20047;-67
2023/03/27 11:23:05;;;;;;;3.05;0.95;;;;;;;8.37;67.96;102045.91;3605948;39;20053;-68
2023/03/27 11:25:51;;;;;;;3.65;1.05;;;;;;;8.67;69.39;102041.34;3601724;39;20059;-68
2023/03/27 11:28:45;;;;;;;2.58;1.10;;;;;;;9.24;69.26;102036.66;3597708;39;20051;-68
2023/03/27 11:31:18;;;;;;;5.57;1.27;;;;;;;9.80;69.87;102038.09;3605385;39;20099;-70
2023/03/27 11:34:05;;;;;;;5.22;1.63;;;;;;;10.35;66.21;102039.50;3607937;39;20043;-70
2023/03/27 11:36:50;;;;;;;2.90;0.98;;;;;;;10.61;61.67;102021.38;3607964;39;20047;-70
2023/03/27 11:40:12;;;;;;;4.88;1.40;;;;;;;11.22;62.23;102029.44;3611987;39;20127;-70
2023/03/27 11:42:44;;;;;;;4.75;1.48;;;;;;;11.73;61.08;102021.69;3598940;39;20055;-71
2023/03/27 11:45:19;;;;;;;3.65;1.40;;;;;;;11.49;56.93;102021.06;3610318;39;20047;-70
2023/03/27 11:48:43;;;;;;;5.90;1.38;;;;;;;11.93;57.88;102031.59;3607075;39;20063;-70
2023/03/27 11:51:56;;;;;;;4.13;1.38;;;;;;;12.34;56.65;102034.03;3605942;39;20057;-70
2023/03/27 11:54:43;;;;;;;6.88;1.25;;;;;;;13.04;56.05;102032.28;3609589;39;20059;-69
2023/03/27 11:57:22;;;;;;;7.95;1.80;;;;;;;13.30;52.69;102039.88;3611781;39;20058;-70
2023/03/27 12:00:15;;;;;;;7.35;3.03;;;;;;;13.65;52.41;102021.72;3611144;39;20094;-70
2023/03/27 12:03:17;;;;;;;7.65;2.88;;;;;;;14.07;50.57;102030.19;3605406;39;20047;-70
2023/03/27 12:06:08;;;;;;;3.47;1.40;;;;;;;14.56;49.71;102022.84;3605907;39;20299;-70
2023/03/27 12:09:15;;;;;;;5.75;1.33;;;;;;;13.79;44.92;102025.50;3609371;39;20067;-69